Time;durP1;ratioP1;P1;durP2;ratioP2;P2;SDS_P1;SDS_P2;PMS_P1;PMS_P2;Temp;Humidity;BMP_temperature;BMP_pressure;BME280_temperature;BME280_humidity;BME280_pressure;Samples;Min_cycle;Max_cycle;Signal;HPM_P1;HPM_P2
2023/07/10 00:00:22;;;;;;;;;8.25;8.00;;;;;25.13;53.80;101226.31;146618;674;46014;-66
2023/07/10 00:03:29;;;;;;;;;7.33;6.33;;;;;25.06;52.22;101217.44;146619;655;46915;-66
2023/07/10 00:06:26;;;;;;;;;8.00;7.25;;;;;25.12;53.90;101225.44;146613;570;46014;-68
2023/07/10 00:09:18;;;;;;;;;8.00;7.33;;;;;25.15;54.70;101229.84;146617;563;46016;-67
2023/07/10 00:12:23;;;;;;;;;9.00;8.00;;;;;25.10;55.79;101228.94;146621;626;46021;-69
2023/07/10 00:15:31;;;;;;;;;6.75;6.25;;;;;24.98;56.80;101227.16;146617;579;46012;-66
2023/07/10 00:18:39;;;;;;;;;9.25;8.00;;;;;24.87;55.96;101224.50;146620;609;46011;-66
2023/07/10 00:21:42;;;;;;;;;7.67;7.67;;;;;24.83;55.59;101224.53;146615;675;47012;-66
2023/07/10 00:24:40;;;;;;;;;7.33;7.00;;;;;24.84;54.16;101218.31;146618;580;46014;-66
2023/07/10 00:27:57;;;;;;;;;8.67;8.67;;;;;24.85;55.63;101220.09;146618;579;46025;-65
2023/07/10 00:30:53;;;;;;;;;10.33;8.67;;;;;24.75;55.49;101218.31;146622;594;46020;-65
2023/07/10 00:33:47;;;;;;;;;7.00;7.00;;;;;24.62;55.06;101228.03;146614;598;47014;-63
2023/07/10 00:36:46;;;;;;;;;7.33;7.00;;;;;24.60;54.51;101219.19;146617;564;46020;-64
2023/07/10 00:40:00;;;;;;;;;8.33;8.33;;;;;24.65;53.17;101213.00;146616;592;47012;-64
2023/07/10 00:43:10;;;;;;;;;9.00;8.00;;;;;24.65;52.94;101214.78;146622;612;46020;-63
2023/07/10 00:46:18;;;;;;;;;10.00;7.33;;;;;24.60;51.27;101219.19;146617;564;46034;-64
2023/07/10 00:49:48;;;;;;;;;7.67;6.00;;;;;22.22;51.48;100812.56;146619;582;46021;-64
2023/07/10 00:53:03;;;;;;;;;7.00;7.00;;;;;21.93;51.02;100781.53;146616;569;46016;-63
2023/07/10 00:56:11;;;;;;;;;6.00;6.00;;;;;24.40;51.43;101214.69;146620;692;46022;-64
2023/07/10 00:59:42;;;;;;;;;8.75;7.50;;;;;24.43;51.17;101228.00;146617;662;47012;-65
2023/07/10 01:02:40;;;;;;;;;8.33;7.33;;;;;24.37;50.61;101217.34;146629;592;46029;-63
2023/07/10 01:05:46;;;;;;;;;7.67;7.67;;;;;24.28;51.00;101217.31;146636;606;45016;-63
2023/07/10 01:09:08;;;;;;;;;9.50;7.25;;;;;24.16;51.64;101211.97;146630;603;45020;-67
2023/07/10 01:12:17;;;;;;;;;7.00;7.00;;;;;24.05;51.26;101209.31;146631;605;45017;-66
2023/07/10 01:15:27;;;;;;;;;6.33;5.67;;;;;24.01;50.25;101210.16;146638;596;45020;-66
2023/07/10 01:18:38;;;;;;;;;8.00;7.00;;;;;24.04;50.14;101207.53;146636;570;45013;-65
2023/07/10 01:21:42;;;;;;;;;8.50;7.50;;;;;24.05;50.83;101219.00;146634;565;45029;-65
2023/07/10 01:24:43;;;;;;;;;6.00;6.00;;;;;24.01;50.77;101215.44;146632;645;45016;-65
2023/07/10 01:27:47;;;;;;;;;5.75;5.75;;;;;24.01;50.99;101217.22;146635;593;45014;-66
2023/07/10 01:30:48;;;;;;;;;8.67;7.67;;;;;23.93;52.35;101212.78;146633;570;45916;-69
2023/07/10 01:33:57;;;;;;;;;8.00;7.67;;;;;23.90;51.82;101220.72;146637;646;45010;-66
2023/07/10 01:37:06;;;;;;;;;5.50;5.50;;;;;22.74;49.93;101022.47;146630;615;46031;-66
2023/07/10 01:40:04;;;;;;;;;7.00;6.00;;;;;23.84;50.45;101215.41;146629;584;46021;-64
2023/07/10 01:43:12;;;;;;;;;;;;;;;;;;;;;
2023/07/10 01:46:49;;;;;;;;;6.00;6.00;;;;;23.86;48.40;101215.38;146639;626;45010;-64
2023/07/10 01:50:21;;;;;;;;;5.67;5.67;;;;;21.32;48.45;100768.78;146633;645;46012;-63
2023/07/10 01:54:04;;;;;;;;;5.67;5.00;;;;;21.37;49.13;100782.94;146637;603;46026;-64
2023/07/10 01:57:04;;;;;;;;;7.75;7.00;;;;;23.85;50.94;101206.56;146633;643;45016;-66
2023/07/10 02:00:36;;;;;;;;;5.00;5.00;;;;;23.80;50.19;101218.91;146636;640;45020;-67
2023/07/10 02:03:45;;;;;;;;;8.33;6.33;;;;;23.82;52.45;101206.56;146633;572;45916;-63
2023/07/10 02:06:40;;;;;;;;;7.00;7.00;;;;;23.87;54.55;101206.59;146637;596;45020;-63
2023/07/10 02:09:38;;;;;;;;;7.67;7.00;;;;;23.93;55.50;101206.63;146628;575;45916;-63
2023/07/10 02:13:01;;;;;;;;;8.50;6.75;;;;;21.64;51.81;100798.09;146634;566;47010;-65
2023/07/10 02:16:21;;;;;;;;;9.75;9.00;;;;;24.19;51.38;101223.47;146630;614;45035;-64
2023/07/10 02:19:15;;;;;;;;;8.00;8.00;;;;;23.25;54.42;101036.87;146635;672;45010;-63
2023/07/10 02:22:13;;;;;;;;;8.25;6.50;;;;;24.47;54.19;101228.88;146634;612;45029;-64
2023/07/10 02:25:17;;;;;;;;;8.50;7.25;;;;;22.30;53.13;100831.94;146634;576;46025;-64
2023/07/10 02:28:34;;;;;;;;;7.50;7.00;;;;;22.12;53.13;100806.31;146631;620;46914;-65
2023/07/10 02:31:40;;;;;;;;;9.25;9.25;;;;;24.53;53.52;101239.50;146636;680;45015;-64
2023/07/10 02:34:35;;;;;;;;;7.67;7.67;;;;;24.57;55.92;101241.25;146634;601;45016;-63
2023/07/10 02:37:50;;;;;;;;;11.25;10.75;;;;;24.60;57.30;101249.22;146636;580;45010;-63
2023/07/10 02:41:09;;;;;;;;;7.50;7.50;;;;;24.47;55.39;101286.31;146630;584;45914;-65
2023/07/10 02:44:15;;;;;;;;;8.33;8.33;;;;;21.89;52.62;100832.56;146636;630;46020;-65
2023/07/10 02:47:26;;;;;;;;;;;;;;;;;;;;;
2023/07/10 02:50:27;;;;;;;;;6.33;6.33;;;;;24.13;54.79;101246.41;146634;684;46012;-64
2023/07/10 02:53:37;;;;;;;;;7.33;6.67;;;;;24.04;52.72;101247.25;146634;603;46012;-64
2023/07/10 02:56:38;;;;;;;;;7.00;6.00;;;;;23.97;55.02;101243.69;146638;598;45020;-65
2023/07/10 02:59:38;;;;;;;;;7.50;7.50;;;;;23.91;57.29;101242.78;146631;619;46012;-65
2023/07/10 03:02:44;;;;;;;;;7.00;7.00;;;;;23.89;55.40;101256.00;146635;610;45011;-64
2023/07/10 03:05:49;;;;;;;;;7.25;7.00;;;;;23.87;55.11;101247.19;146632;588;45016;-65
2023/07/10 03:09:04;;;;;;;;;;;;;;;;;;;;;
2023/07/10 03:12:37;;;;;;;;;7.00;6.50;;;;;21.43;53.15;100814.66;146634;691;46012;-66
2023/07/10 03:15:38;;;;;;;;;6.00;5.00;;;;;24.04;54.90;101267.56;146632;569;45010;-67
2023/07/10 03:18:50;;;;;;;;;5.33;4.00;;;;;21.37;53.15;100818.97;146634;672;45878;-67
2023/07/10 03:22:12;;;;;;;;;8.25;7.25;;;;;24.00;55.78;101284.34;146636;689;45028;-66
2023/07/10 03:25:16;;;;;;;;;7.00;7.00;;;;;23.97;54.46;101287.84;146632;635;45016;-66
2023/07/10 03:28:26;;;;;;;;;6.67;6.00;;;;;23.88;52.50;101278.09;146636;610;45019;-65
2023/07/10 03:31:27;;;;;;;;;7.00;6.00;;;;;23.77;50.25;101276.25;146634;592;45012;-66
2023/07/10 03:34:22;;;;;;;;;7.00;6.25;;;;;22.59;52.51;101078.75;146635;569;45030;-67
2023/07/10 03:37:39;;;;;;;;;6.75;6.75;;;;;23.79;51.65;101288.63;146633;673;45915;-67
2023/07/10 03:40:39;;;;;;;;;6.00;6.00;;;;;23.77;48.63;101287.75;146634;634;46010;-67
2023/07/10 03:43:43;;;;;;;;;6.75;6.00;;;;;23.74;48.17;101285.97;146634;630;45016;-66
2023/07/10 03:46:39;;;;;;;;;6.75;5.50;;;;;23.78;47.74;101294.81;146629;593;46011;-67
2023/07/10 03:49:35;;;;;;;;;8.00;7.25;;;;;23.81;48.33;101296.59;146631;569;46012;-66
2023/07/10 03:52:28;;;;;;;;;8.00;7.00;;;;;23.82;49.11;101301.87;146634;708;45011;-65
2023/07/10 03:55:50;;;;;;;;;7.50;6.75;;;;;23.91;48.21;101301.06;146632;643;46014;-67
2023/07/10 03:58:40;;;;;;;;;10.50;9.50;;;;;23.91;51.49;101315.19;146700;577;46023;-68
2023/07/10 04:01:43;;;;;;;;;8.75;7.75;;;;;23.94;50.83;101307.25;146619;633;45943;-66
2023/07/10 04:05:03;;;;;;;;;8.25;6.75;;;;;23.94;51.32;101317.84;146621;675;47010;-67
2023/07/10 04:07:55;;;;;;;;;5.50;5.50;;;;;23.98;52.08;101316.09;146618;688;47029;-67
2023/07/10 04:11:01;;;;;;;;;7.00;7.00;;;;;24.04;49.98;101305.53;146620;718;46020;-66
2023/07/10 04:14:23;;;;;;;;;6.33;6.33;;;;;24.07;50.65;101312.63;146620;575;47012;-67
2023/07/10 04:17:27;;;;;;;;;6.00;6.00;;;;;24.22;49.80;101317.12;146619;590;47010;-66
2023/07/10 04:20:21;;;;;;;;;6.00;6.00;;;;;24.46;49.12;101319.91;146613;565;47029;-64
2023/07/10 04:23:42;;;;;;;;;;;;;;;;;;;;;
2023/07/10 04:26:46;;;;;;;;;6.00;6.00;;;;;24.99;48.27;101324.44;146617;574;46913;-65
2023/07/10 04:29:41;;;;;;;;;6.50;5.75;;;;;25.24;48.31;101329.81;146620;641;48010;-66
2023/07/10 04:32:33;;;;;;;;;6.75;6.75;;;;;25.45;48.26;101329.81;146617;641;46914;-67
2023/07/10 04:35:31;;;;;;;;;6.75;6.75;;;;;25.65;47.30;101327.16;146620;593;47020;-66
2023/07/10 04:38:25;;;;;;;;;6.75;6.75;;;;;25.75;48.04;101333.31;146615;653;47014;-66
2023/07/10 04:41:24;;;;;;;;;7.67;7.00;;;;;25.85;47.09;101327.12;146623;573;46011;-67
2023/07/10 04:44:46;;;;;;;;;6.00;5.25;;;;;26.06;46.86;101327.97;146617;594;46031;-66
2023/07/10 04:47:45;;;;;;;;;7.33;7.33;;;;;26.20;46.54;101331.44;146620;606;46020;-70
2023/07/10 04:50:39;;;;;;;;;5.75;5.75;;;;;26.23;47.31;101331.44;146615;569;47012;-67
2023/07/10 04:53:45;;;;;;;;;8.75;7.75;;;;;26.24;48.03;101333.22;146618;640;46020;-67
2023/07/10 04:56:46;;;;;;;;;8.75;8.75;;;;;26.31;50.40;101326.13;146615;572;46917;-68
2023/07/10 04:59:59;;;;;;;;;;;;;;;;;;;;;
2023/07/10 05:03:01;;;;;;;;;10.00;8.00;;;;;26.64;52.44;101341.06;146611;676;46017;-66
2023/07/10 05:06:23;;;;;;;;;8.50;7.25;;;;;25.59;49.85;101125.31;146616;730;46020;-66
2023/07/10 05:09:37;;;;;;;;;;;;;;;;;;;;;
2023/07/10 05:12:41;;;;;;;;;8.00;8.00;;;;;26.97;49.13;101345.28;146615;590;47010;-66
2023/07/10 05:15:46;;;;;;;;;7.33;7.00;;;;;27.10;49.21;101346.09;146611;569;46038;-68
2023/07/10 05:18:51;;;;;;;;;;;;;;;;;;;;;
2023/07/10 05:21:47;;;;;;;;;5.00;5.00;;;;;27.14;45.18;101346.09;146610;588;47016;-66
2023/07/10 05:24:52;;;;;;;;;7.00;7.00;;;;;25.66;45.79;101092.53;146618;573;47010;-66
2023/07/10 05:27:49;;;;;;;;;6.00;6.00;;;;;27.18;45.15;101347.84;146609;611;46012;-67
2023/07/10 05:30:44;;;;;;;;;8.67;8.00;;;;;27.26;45.68;101349.56;146615;592;46020;-67
2023/07/10 05:33:53;;;;;;;;;6.00;5.33;;;;;27.28;48.36;101356.63;146613;637;46915;-67
2023/07/10 05:36:56;;;;;;;;;11.00;8.75;;;;;27.34;49.49;101361.91;146616;645;46010;-65
2023/07/10 05:39:50;;;;;;;;;6.75;6.50;;;;;27.38;49.65;101360.09;146610;576;47012;-66
2023/07/10 05:42:50;;;;;;;;;7.50;6.75;;;;;27.46;48.78;101357.41;146617;583;46010;-69
2023/07/10 05:46:11;;;;;;;;;8.00;8.00;;;;;26.32;48.25;101145.31;146612;635;46016;-67
2023/07/10 05:49:25;;;;;;;;;9.75;8.50;;;;;27.65;48.93;101359.00;146614;578;47010;-68
2023/07/10 05:52:29;;;;;;;;;10.33;8.00;;;;;27.86;46.71;101360.59;146613;627;46016;-69
2023/07/10 05:55:32;;;;;;;;;10.33;8.67;;;;;28.05;45.33;101361.28;146617;653;46011;-68
2023/07/10 05:58:54;;;;;;;;;;;;;;;;;;;;;
2023/07/10 06:01:57;;;;;;;;;8.67;7.67;;;;;28.48;44.65;101376.84;146616;599;46020;-67
2023/07/10 06:05:02;;;;;;;;;4.33;4.33;;;;;28.62;44.23;101372.19;146613;569;46016;-68
2023/07/10 06:08:15;;;;;;;;;9.33;9.33;;;;;28.84;43.78;101366.56;146617;676;46010;-70
2023/07/10 06:11:12;;;;;;;;;8.50;7.00;;;;;29.06;44.01;101365.37;146611;579;46013;-70
2023/07/10 06:14:15;;;;;;;;;10.67;7.00;;;;;29.27;44.53;101369.50;146615;592;46020;-67
2023/07/10 06:17:26;;;;;;;;;8.00;7.33;;;;;29.49;43.13;101364.69;146606;570;47012;-68
2023/07/10 06:20:35;;;;;;;;;;;;;;;;;;;;;
2023/07/10 06:23:49;;;;;;;;;9.00;8.67;;;;;28.19;42.75;101106.03;146610;605;47012;-68
2023/07/10 06:26:42;;;;;;;;;7.50;7.50;;;;;29.79;42.10;101371.31;146613;641;47010;-66
2023/07/10 06:29:40;;;;;;;;;9.00;9.00;;;;;29.89;42.54;101366.69;146611;581;47016;-67
2023/07/10 06:32:43;;;;;;;;;8.00;7.00;;;;;29.98;43.30;101363.84;146617;689;46020;-66
2023/07/10 06:35:41;;;;;;;;;7.00;6.67;;;;;30.08;40.43;101368.09;146612;611;46016;-67
2023/07/10 06:38:41;;;;;;;;;;;;;;;;;;;;;
2023/07/10 06:41:38;;;;;;;;;10.00;8.00;;;;;30.14;43.04;101357.28;146622;591;47012;-66
2023/07/10 06:44:50;;;;;;;;;6.00;6.00;;;;;29.04;41.99;101150.94;146628;639;46020;-68
2023/07/10 06:47:56;;;;;;;;;7.33;7.00;;;;;30.20;42.08;101356.31;146623;563;47012;-68
2023/07/10 06:51:11;;;;;;;;;8.00;7.00;;;;;29.66;42.96;101284.28;146629;648;47010;-67
2023/07/10 06:54:29;;;;;;;;;;;;;;;;;;;;;
2023/07/10 06:57:39;;;;;;;;;9.00;8.00;;;;;30.23;43.77;101360.72;146629;594;47010;-66
2023/07/10 07:00:37;;;;;;;;;10.67;8.33;;;;;30.29;43.91;101358.81;146625;628;46917;-68
2023/07/10 07:03:35;;;;;;;;;7.00;7.00;;;;;30.33;42.78;101355.13;146628;595;47044;-68
2023/07/10 07:06:35;;;;;;;;;7.33;7.33;;;;;30.39;43.21;101354.12;146624;570;46016;-68
2023/07/10 07:09:38;;;;;;;;;;;;;;;;;;;;;
2023/07/10 07:12:53;;;;;;;;;9.00;8.67;;;;;30.40;42.35;101353.22;146624;695;46016;-66
2023/07/10 07:15:48;;;;;;;;;8.00;7.67;;;;;30.33;42.43;101349.78;146629;592;46021;-67
2023/07/10 07:19:13;;;;;;;;;8.67;8.67;;;;;30.25;42.72;101348.19;146624;582;47014;-68
2023/07/10 07:22:08;;;;;;;;;6.00;6.00;;;;;30.28;42.93;101346.34;146633;600;45021;-66
2023/07/10 07:25:11;;;;;;;;;8.67;7.00;;;;;30.40;41.96;101347.00;146626;661;46012;-68
2023/07/10 07:28:21;;;;;;;;;8.67;8.67;;;;;30.58;41.91;101346.59;146630;604;46020;-66
2023/07/10 07:31:19;;;;;;;;;8.00;7.00;;;;;30.82;41.06;101348.75;146626;588;46012;-67
2023/07/10 07:34:16;;;;;;;;;6.67;6.67;;;;;30.96;40.42;101342.19;146625;586;46020;-67
2023/07/10 07:37:24;;;;;;;;;5.33;5.00;;;;;31.06;39.09;101343.75;146620;592;47012;-66
2023/07/10 07:40:24;;;;;;;;;6.67;6.67;;;;;31.12;38.08;101343.56;146622;629;47014;-66
2023/07/10 07:43:36;;;;;;;;;;;;;;;;;;;;;
2023/07/10 07:46:39;;;;;;;;;6.00;6.00;;;;;31.37;36.60;101345.69;146622;602;46021;-67
2023/07/10 07:49:48;;;;;;;;;7.33;6.33;;;;;31.56;35.31;101341.63;146620;577;46031;-67
2023/07/10 07:53:05;;;;;;;;;6.00;6.00;;;;;31.62;36.03;101345.94;146620;602;46021;-68
2023/07/10 07:56:00;;;;;;;;;8.00;6.67;;;;;31.59;34.56;101346.00;146619;589;47012;-67
2023/07/10 07:58:55;;;;;;;;;7.33;7.33;;;;;31.64;33.53;101342.28;146620;595;46021;-67
2023/07/10 08:05:25;;;;;;;;;6.00;6.00;;;;;31.70;31.63;101330.53;146619;629;48020;-68
2023/07/10 08:08:36;;;;;;;;;6.25;5.50;;;;;31.67;32.50;101326.13;146618;594;46917;-67
2023/07/10 08:11:20;;;;;;;;;5.00;4.67;;;;;31.60;31.09;101324.53;146699;565;46012;-67
2023/07/10 08:14:22;;;;;;;;;8.00;7.00;;;;;31.58;32.88;101322.81;146617;550;47016;-68
2023/07/10 08:17:17;;;;;;;;;7.00;7.00;;;;;31.65;31.89;101322.63;146623;598;46010;-67
2023/07/10 08:20:21;;;;;;;;;6.67;6.67;;;;;31.77;32.95;101320.53;146623;575;47016;-66
2023/07/10 08:23:22;;;;;;;;;5.25;5.25;;;;;31.83;32.54;101320.34;146618;697;46020;-67
2023/07/10 08:26:44;;;;;;;;;7.00;7.00;;;;;30.87;36.32;101144.25;146617;583;48012;-67
2023/07/10 08:29:44;;;;;;;;;6.33;4.67;;;;;31.97;31.95;101318.22;146624;620;46010;-68
2023/07/10 08:33:02;;;;;;;;;7.00;6.67;;;;;32.06;33.53;101314.38;146617;570;46016;-68
2023/07/10 08:36:10;;;;;;;;;6.00;6.00;;;;;32.11;34.04;101320.47;146622;595;46010;-67
2023/07/10 08:39:15;;;;;;;;;5.67;4.67;;;;;32.10;33.15;101316.06;146618;642;46911;-69
2023/07/10 08:42:28;;;;;;;;;5.75;5.75;;;;;32.08;32.26;101325.94;146620;710;46021;-68
2023/07/10 08:45:37;;;;;;;;;6.00;6.00;;;;;32.04;32.13;101316.22;146619;666;46016;-66
2023/07/10 08:49:11;;;;;;;;;6.50;6.50;;;;;31.97;34.74;101318.22;146624;651;46011;-66
2023/07/10 08:52:40;;;;;;;;;6.33;6.33;;;;;32.09;34.50;101315.19;146615;580;46016;-67
2023/07/10 08:56:13;;;;;;;;;6.00;6.00;;;;;32.30;33.82;101320.81;146624;571;46010;-69
2023/07/10 08:59:33;;;;;;;;;7.00;7.00;;;;;32.34;35.29;101309.97;146616;588;47016;-67
2023/07/10 09:03:11;;;;;;;;;6.33;6.00;;;;;32.36;34.14;101316.16;146621;570;46022;-66
2023/07/10 09:06:28;;;;;;;;;8.00;8.00;;;;;32.37;33.52;101312.56;146619;647;46034;-67
2023/07/10 09:10:07;;;;;;;;;8.00;6.00;;;;;30.46;32.93;100982.94;146620;632;46027;-67
2023/07/10 09:13:06;;;;;;;;;6.33;6.33;;;;;32.16;33.76;101314.06;146620;644;47012;-68
2023/07/10 09:16:32;;;;;;;;;7.00;7.00;;;;;31.93;32.95;101312.06;146625;630;46020;-67
2023/07/10 09:19:35;;;;;;;;;7.00;6.00;;;;;31.80;33.06;101320.44;146619;595;46912;-68
2023/07/10 09:22:32;;;;;;;;;8.00;8.00;;;;;31.78;33.96;101307.09;146622;563;46037;-68
2023/07/10 09:25:47;;;;;;;;;6.50;6.50;;;;;31.91;34.82;101308.53;146617;569;46014;-68
2023/07/10 09:28:42;;;;;;;;;7.00;7.00;;;;;31.95;33.19;101306.62;146625;563;46014;-67
2023/07/10 09:32:16;;;;;;;;;7.00;7.00;;;;;31.03;35.22;101122.41;146620;635;47012;-68
2023/07/10 09:35:28;;;;;;;;;6.00;5.33;;;;;32.37;33.86;101299.13;146624;564;46010;-69
2023/07/10 09:38:31;;;;;;;;;7.67;7.00;;;;;32.61;33.26;101304.69;146619;633;47012;-67
2023/07/10 09:41:33;;;;;;;;;8.00;8.00;;;;;32.69;34.52;101299.97;146623;710;46021;-69
2023/07/10 09:45:02;;;;;;;;;8.00;8.00;;;;;31.71;34.40;101117.81;146621;631;47014;-68
2023/07/10 09:48:46;;;;;;;;;9.00;8.00;;;;;30.80;34.62;100951.66;146622;590;46010;-68
2023/07/10 09:52:03;;;;;;;;;9.00;7.00;;;;;32.85;32.79;101305.72;146616;658;46016;-66
2023/07/10 09:55:35;;;;;;;;;7.00;6.00;;;;;32.75;34.25;101293.53;146624;649;46011;-67
2023/07/10 09:58:51;;;;;;;;;7.00;5.50;;;;;32.61;34.48;101300.19;146618;569;46012;-68
2023/07/10 10:02:35;;;;;;;;;5.00;5.00;;;;;32.57;34.10;101293.19;146624;580;46030;-66
2023/07/10 10:05:45;;;;;;;;;;;;;;;;;;;;;
2023/07/10 10:09:17;;;;;;;;;;;;;;;;;;;;;
2023/07/10 10:12:49;;;;;;;;;6.50;6.25;;;;;32.77;34.27;101297.03;146614;606;46016;-67
2023/07/10 10:16:47;;;;;;;;;8.75;8.75;;;;;30.50;34.69;100896.31;146623;620;46010;-67
2023/07/10 10:19:46;;;;;;;;;7.25;7.25;;;;;32.79;34.57;101287.13;146616;711;46016;-68
2023/07/10 10:23:10;;;;;;;;;8.00;6.33;;;;;32.84;34.03;101286.06;146618;563;46020;-67
2023/07/10 10:26:32;;;;;;;;;7.33;7.33;;;;;32.92;33.71;101282.22;146617;585;47012;-68
2023/07/10 10:30:02;;;;;;;;;6.00;6.00;;;;;32.95;35.57;101282.13;146623;608;46010;-67
2023/07/10 10:33:32;;;;;;;;;7.33;6.33;;;;;32.89;34.39;101280.53;146617;629;47012;-68
2023/07/10 10:36:50;;;;;;;;;6.00;6.00;;;;;32.84;33.81;101272.62;146623;640;46020;-66
2023/07/10 10:40:00;;;;;;;;;7.67;6.33;;;;;32.87;32.56;101274.34;146620;565;46017;-66
2023/07/10 10:43:38;;;;;;;;;7.00;6.00;;;;;32.80;32.93;101279.00;146619;639;47010;-68
2023/07/10 10:47:29;;;;;;;;;6.00;6.00;;;;;30.46;33.49;100895.53;146616;581;47013;-68
2023/07/10 10:51:02;;;;;;;;;8.33;6.00;;;;;32.42;34.60;101261.41;146620;593;47020;-70
2023/07/10 10:54:33;;;;;;;;;9.25;8.75;;;;;32.48;34.50;101263.94;146615;610;47012;-67
2023/07/10 10:58:13;;;;;;;;;7.00;6.67;;;;;30.57;32.99;100895.22;146624;609;47010;-68
2023/07/10 11:01:48;;;;;;;;;6.33;6.33;;;;;32.80;33.31;101246.78;146617;631;47017;-67
2023/07/10 11:04:54;;;;;;;;;6.00;6.00;;;;;32.92;31.59;101240.13;146617;580;47010;-68
2023/07/10 11:08:09;;;;;;;;;5.00;4.00;;;;;33.00;31.04;101243.47;146611;576;47016;-68
2023/07/10 11:11:06;;;;;;;;;9.67;8.00;;;;;33.04;31.63;101234.38;146625;603;46010;-67
2023/07/10 11:14:06;;;;;;;;;6.00;6.00;;;;;33.11;31.45;101237.72;146617;594;46033;-67
2023/07/10 11:17:25;;;;;;;;;7.00;5.67;;;;;30.95;32.11;100864.66;146623;569;46010;-67
2023/07/10 11:20:28;;;;;;;;;7.00;7.00;;;;;33.02;32.00;101220.13;146619;577;47012;-67
2023/07/10 11:24:09;;;;;;;;;8.00;7.67;;;;;33.06;29.87;101219.09;146621;596;46020;-69
2023/07/10 11:27:23;;;;;;;;;6.00;6.00;;;;;33.04;31.83;101212.00;146619;581;46912;-67
2023/07/10 11:30:32;;;;;;;;;;;;;;;;;;;;;
2023/07/10 11:33:31;;;;;;;;;7.33;7.00;;;;;32.93;30.90;101200.72;146622;566;46012;-66
2023/07/10 11:37:05;;;;;;;;;;;;;;;;;;;;;
2023/07/10 11:39:59;;;;;;;;;6.00;6.00;;;;;33.03;30.90;101194.16;146618;564;47012;-68
2023/07/10 11:42:55;;;;;;;;;7.00;7.00;;;;;33.04;30.80;101202.13;146623;622;46010;-67
2023/07/10 11:46:06;;;;;;;;;7.00;6.33;;;;;33.01;32.15;101196.88;146612;654;46016;-67
2023/07/10 11:49:34;;;;;;;;;7.67;7.67;;;;;33.17;30.85;101197.19;146621;579;46035;-67
2023/07/10 11:52:38;;;;;;;;;8.00;7.00;;;;;33.20;30.95;101189.03;146621;565;46031;-67
2023/07/10 11:55:31;;;;;;;;;7.50;7.00;;;;;33.30;30.25;101189.56;146623;659;46010;-67
2023/07/10 11:58:33;;;;;;;;;5.00;5.00;;;;;33.41;30.53;101190.09;146615;628;46016;-67
2023/07/10 12:01:28;;;;;;;;;6.00;6.00;;;;;33.51;30.56;101175.38;146621;660;46021;-66
2023/07/10 12:04:25;;;;;;;;;7.00;7.00;;;;;33.55;31.16;101182.44;146618;563;46016;-67
2023/07/10 12:07:40;;;;;;;;;7.00;7.00;;;;;31.28;31.71;100798.44;146623;572;47010;-68
2023/07/10 12:10:59;;;;;;;;;5.25;5.25;;;;;31.32;30.81;100817.09;146621;658;46012;-67
2023/07/10 12:13:59;;;;;;;;;7.00;5.00;;;;;33.41;30.45;101173.94;146623;616;47020;-67
2023/07/10 12:17:03;;;;;;;;;6.00;6.00;;;;;33.41;32.09;101175.78;146619;638;46016;-66
2023/07/10 12:19:57;;;;;;;;;7.67;7.67;;;;;33.45;30.43;101174.72;146622;669;47010;-66
2023/07/10 12:23:13;;;;;;;;;5.00;5.00;;;;;31.36;31.76;100805.34;146614;644;47017;-66
2023/07/10 12:26:30;;;;;;;;;7.67;7.67;;;;;33.51;32.39;101175.38;146618;680;47014;-67
2023/07/10 12:29:42;;;;;;;;;7.00;7.00;;;;;33.57;31.83;101168.91;146619;625;46029;-66
2023/07/10 12:32:39;;;;;;;;;6.33;6.33;;;;;33.62;31.49;101166.94;146623;565;46023;-67
2023/07/10 12:35:45;;;;;;;;;7.33;7.33;;;;;33.70;31.69;101158.56;146617;631;47012;-65
2023/07/10 12:38:49;;;;;;;;;7.67;7.00;;;;;33.70;29.77;101156.75;146625;580;46010;-66
2023/07/10 12:41:48;;;;;;;;;4.50;4.50;;;;;33.71;29.79;101147.75;146614;656;47016;-65
2023/07/10 12:44:50;;;;;;;;;7.33;6.67;;;;;33.72;30.08;101151.31;146624;628;47010;-66
2023/07/10 12:48:24;;;;;;;;;7.33;6.33;;;;;33.71;31.20;101147.75;146619;659;46016;-68
2023/07/10 12:51:32;;;;;;;;;8.67;7.33;;;;;33.70;31.43;101140.59;146623;605;47014;-66
2023/07/10 12:54:47;;;;;;;;;6.00;6.00;;;;;33.68;30.17;101141.63;146619;609;46028;-66
2023/07/10 12:57:49;;;;;;;;;6.25;6.25;;;;;33.71;30.84;101139.69;146620;565;47014;-65
2023/07/10 13:00:52;;;;;;;;;6.67;6.33;;;;;33.69;31.56;101141.56;146620;645;46017;-66
2023/07/10 13:03:39;;;;;;;;;5.00;5.00;;;;;33.67;29.50;101132.66;146702;569;45023;-64
2023/07/10 13:06:44;;;;;;;;;5.00;5.00;;;;;33.69;30.47;101135.31;146618;589;47016;-65
2023/07/10 13:09:46;;;;;;;;;7.00;6.75;;;;;33.66;30.29;101135.44;146617;564;46028;-66
2023/07/10 13:12:47;;;;;;;;;5.67;5.67;;;;;33.64;32.56;101143.53;146614;563;46012;-65
2023/07/10 13:16:05;;;;;;;;;6.00;6.00;;;;;33.65;32.23;101137.25;146624;572;46020;-67
2023/07/10 13:19:10;;;;;;;;;3.00;3.00;;;;;33.65;32.32;101145.31;146614;573;46017;-65
2023/07/10 13:22:18;;;;;;;;;5.25;5.25;;;;;33.52;29.70;101134.16;146616;566;46020;-66
2023/07/10 13:25:39;;;;;;;;;6.00;6.00;;;;;33.47;30.53;101132.53;146614;574;46016;-67
2023/07/10 13:28:49;;;;;;;;;7.33;6.67;;;;;33.48;32.69;101136.97;146618;610;47014;-66
2023/07/10 13:31:48;;;;;;;;;6.00;6.00;;;;;33.47;34.40;101137.91;146612;608;47015;-67
2023/07/10 13:35:01;;;;;;;;;7.67;7.67;;;;;32.11;33.15;100916.28;146621;579;46020;-65
2023/07/10 13:38:08;;;;;;;;;6.50;5.50;;;;;30.96;33.03;100737.88;146612;687;46016;-66
2023/07/10 13:41:01;;;;;;;;;7.00;5.33;;;;;33.27;31.97;101135.94;146622;570;46010;-68
2023/07/10 13:44:04;;;;;;;;;6.00;6.00;;;;;33.24;31.86;101128.00;146612;589;47012;-67
2023/07/10 13:47:10;;;;;;;;;5.67;5.67;;;;;33.18;34.03;101142.56;146620;709;46011;-65
2023/07/10 13:50:20;;;;;;;;;6.00;6.00;;;;;33.15;32.26;101133.69;146615;580;46915;-66
2023/07/10 13:53:42;;;;;;;;;7.00;7.00;;;;;31.05;32.90;100777.75;146617;608;46010;-68
2023/07/10 13:56:49;;;;;;;;;6.33;6.33;;;;;33.11;33.65;101133.81;146614;596;46914;-66
2023/07/10 13:59:44;;;;;;;;;7.33;6.33;;;;;33.08;36.03;101133.91;146621;611;46020;-66
2023/07/10 14:02:55;;;;;;;;;6.75;6.00;;;;;33.02;35.87;101130.56;146612;602;46016;-67
2023/07/10 14:05:55;;;;;;;;;8.00;8.00;;;;;32.97;34.21;101128.06;146617;606;46010;-66
2023/07/10 14:08:56;;;;;;;;;6.67;6.67;;;;;32.92;33.01;101121.94;146612;657;47013;-66
2023/07/10 14:12:01;;;;;;;;;5.33;4.67;;;;;32.85;34.16;101115.91;146619;667;46010;-67
2023/07/10 14:15:03;;;;;;;;;5.67;5.33;;;;;32.84;33.16;101119.53;146612;580;46034;-67
2023/07/10 14:18:06;;;;;;;;;7.00;7.00;;;;;32.86;34.10;101116.78;146620;592;47020;-67
2023/07/10 14:21:04;;;;;;;;;8.33;7.00;;;;;32.84;36.56;101118.66;146611;667;47012;-65
2023/07/10 14:24:21;;;;;;;;;6.67;6.67;;;;;32.78;35.64;101116.19;146617;590;47011;-66
2023/07/10 14:27:45;;;;;;;;;5.00;5.00;;;;;32.70;33.53;101116.44;146611;606;47012;-66
2023/07/10 14:30:44;;;;;;;;;6.67;6.67;;;;;32.68;33.66;101112.97;146618;588;46020;-66
2023/07/10 14:33:43;;;;;;;;;10.50;9.50;;;;;32.68;36.07;101115.63;146612;708;46016;-65
2023/07/10 14:36:40;;;;;;;;;9.75;9.50;;;;;32.64;38.01;101112.16;146618;565;46010;-65
2023/07/10 14:39:47;;;;;;;;;8.00;7.00;;;;;32.58;38.31;101112.38;146610;617;46035;-65
2023/07/10 14:42:39;;;;;;;;;7.33;7.00;;;;;32.54;35.98;101108.03;146636;621;47010;-67
2023/07/10 14:45:33;;;;;;;;;7.67;7.67;;;;;32.48;33.80;101099.31;146616;601;47916;-66
2023/07/10 14:48:38;;;;;;;;;6.25;6.25;;;;;32.55;35.87;101103.53;146615;683;46021;-66
2023/07/10 14:51:30;;;;;;;;;8.33;8.00;;;;;32.55;37.69;101099.03;146612;596;47012;-65
2023/07/10 14:54:27;;;;;;;;;6.75;6.75;;;;;32.57;37.40;101104.37;146618;652;46014;-67
2023/07/10 14:57:41;;;;;;;;;8.75;8.75;;;;;30.93;35.88;100822.78;146611;651;47012;-65
2023/07/10 15:00:58;;;;;;;;;6.67;6.67;;;;;32.57;34.09;101104.37;146622;564;45021;-67
2023/07/10 15:04:20;;;;;;;;;8.75;7.75;;;;;32.51;33.86;101097.41;146611;731;46014;-64
2023/07/10 15:07:35;;;;;;;;;7.00;7.00;;;;;30.05;36.11;100680.94;146619;648;46020;-65